Time;durP1;ratioP1;P1;durP2;ratioP2;P2;SDS_P1;SDS_P2;PMS_P1;PMS_P2;Temp;Humidity;BMP_temperature;BMP_pressure;BME280_temperature;BME280_humidity;BME280_pressure;Samples;Min_cycle;Max_cycle;Signal;HPM_P1;HPM_P2
2021/08/16 00:00:31;;;;;;;13.67;7.80;;;22.20;94.70;;;;;;5076009;28;20459;-68
2021/08/16 00:02:58;;;;;;;10.13;6.93;;;22.20;94.80;;;;;;5075142;28;20447;-68
2021/08/16 00:05:25;;;;;;;9.50;6.67;;;22.20;94.70;;;;;;5075944;28;21024;-67
2021/08/16 00:07:53;;;;;;;12.80;7.40;;;22.20;94.90;;;;;;5075345;28;20471;-67
2021/08/16 00:10:20;;;;;;;12.90;7.67;;;22.20;94.90;;;;;;5075899;28;20462;-67
2021/08/16 00:12:49;;;;;;;15.50;8.30;;;22.10;95.20;;;;;;5075435;28;20440;-69
2021/08/16 00:15:16;;;;;;;11.00;8.27;;;22.00;95.10;;;;;;5075939;28;20440;-67
2021/08/16 00:17:44;;;;;;;13.10;8.53;;;21.90;95.40;;;;;;5075373;28;20432;-67
2021/08/16 00:20:12;;;;;;;11.77;8.57;;;21.90;95.40;;;;;;5075588;28;20440;-67
2021/08/16 00:22:39;;;;;;;11.40;7.70;;;21.80;95.50;;;;;;5075337;28;20443;-67
2021/08/16 00:25:07;;;;;;;17.23;7.37;;;21.90;95.50;;;;;;5075536;28;21008;-67
2021/08/16 00:27:35;;;;;;;11.03;7.73;;;21.90;95.60;;;;;;5074827;28;20467;-67
2021/08/16 00:30:05;;;;;;;13.63;7.30;;;21.80;95.60;;;;;;5075476;28;20451;-67
2021/08/16 00:32:32;;;;;;;15.10;8.83;;;21.80;95.60;;;;;;5075198;28;20893;-67
2021/08/16 00:34:59;;;;;;;10.63;8.00;;;21.80;95.60;;;;;;5075482;28;20505;-67
2021/08/16 00:37:26;;;;;;;10.47;7.60;;;21.70;95.60;;;;;;5074932;28;20452;-67
2021/08/16 00:39:53;;;;;;;15.40;7.70;;;21.80;95.70;;;;;;5075229;28;20484;-68
2021/08/16 00:42:22;;;;;;;16.53;8.10;;;21.80;95.60;;;;;;5075245;28;20432;-67
2021/08/16 00:44:49;;;;;;;13.90;8.60;;;21.70;95.70;;;;;;5075108;28;20487;-68
2021/08/16 00:47:19;;;;;;;13.10;7.57;;;21.70;95.80;;;;;;5074805;28;20475;-67
2021/08/16 00:49:46;;;;;;;14.90;8.03;;;21.70;95.70;;;;;;5075010;28;20480;-67
2021/08/16 00:52:14;;;;;;;15.27;7.30;;;21.60;95.90;;;;;;5074949;28;20469;-67
2021/08/16 00:54:41;;;;;;;11.07;7.20;;;21.60;96.20;;;;;;5075527;28;20432;-67
2021/08/16 00:57:08;;;;;;;17.40;8.47;;;21.60;96.10;;;;;;5075482;28;20437;-67
2021/08/16 00:59:36;;;;;;;14.20;7.70;;;21.50;96.00;;;;;;5075514;28;20774;-68
2021/08/16 01:02:03;;;;;;;10.30;7.00;;;21.50;96.10;;;;;;5075477;28;20756;-68
2021/08/16 01:04:32;;;;;;;13.13;8.53;;;21.50;95.90;;;;;;5074089;28;20521;-67
2021/08/16 01:06:59;;;;;;;15.03;8.20;;;21.50;96.00;;;;;;5075286;28;20468;-67
2021/08/16 01:09:26;;;;;;;8.60;7.00;;;21.50;95.90;;;;;;5075036;28;20444;-69
2021/08/16 01:11:53;;;;;;;11.70;9.10;;;21.50;95.70;;;;;;5075222;28;20527;-67
2021/08/16 01:14:21;;;;;;;12.63;7.33;;;21.50;95.60;;;;;;5074901;28;20471;-68
2021/08/16 01:16:49;;;;;;;10.50;7.00;;;21.50;95.60;;;;;;5075168;28;20504;-67
2021/08/16 01:19:18;;;;;;;10.23;7.67;;;21.50;95.70;;;;;;5074938;28;20803;-69
2021/08/16 01:21:46;;;;;;;9.00;7.00;;;21.50;95.60;;;;;;5075266;28;20497;-67
2021/08/16 01:24:13;;;;;;;12.20;6.87;;;21.40;95.40;;;;;;5075067;28;20436;-67
2021/08/16 01:26:45;;;;;;;16.80;7.27;;;21.40;95.50;;;;;;5074585;28;20567;-67
2021/08/16 01:29:17;;;;;;;12.60;7.50;;;21.40;95.50;;;;;;5074865;28;20443;-67
2021/08/16 01:31:45;;;;;;;14.17;8.70;;;21.40;95.40;;;;;;5074956;28;20446;-67
2021/08/16 01:34:12;;;;;;;13.43;6.93;;;21.30;95.50;;;;;;5074718;28;20463;-67
2021/08/16 01:36:40;;;;;;;10.23;7.07;;;21.30;95.50;;;;;;5074740;28;20481;-67
2021/08/16 01:39:07;;;;;;;11.00;7.53;;;21.30;95.50;;;;;;5074532;28;20443;-67
2021/08/16 01:41:34;;;;;;;8.73;7.03;;;21.30;95.20;;;;;;5074688;28;20534;-67
2021/08/16 01:44:05;;;;;;;9.50;7.63;;;21.30;95.20;;;;;;5074643;28;20440;-67
2021/08/16 01:46:32;;;;;;;10.63;6.83;;;21.30;95.30;;;;;;5074848;28;20448;-68
2021/08/16 01:48:59;;;;;;;14.60;6.43;;;21.30;95.10;;;;;;5074698;28;20428;-67
2021/08/16 01:51:26;;;;;;;10.30;6.97;;;21.30;94.90;;;;;;5074572;28;20792;-67
2021/08/16 01:53:53;;;;;;;8.30;5.40;;;21.30;94.80;;;;;;5074295;28;20463;-67
2021/08/16 01:56:20;;;;;;;12.13;6.50;;;21.30;94.70;;;;;;5074224;28;20522;-67
2021/08/16 01:58:48;;;;;;;10.20;6.40;;;21.30;94.70;;;;;;5074479;28;20515;-67
2021/08/16 02:01:16;;;;;;;7.30;5.90;;;21.30;94.50;;;;;;5074135;28;20450;-67
2021/08/16 02:03:43;;;;;;;11.93;6.00;;;21.30;94.30;;;;;;5074191;28;20514;-68
2021/08/16 02:06:11;;;;;;;8.80;6.23;;;21.30;94.20;;;;;;5074163;28;20578;-68
2021/08/16 02:08:38;;;;;;;9.00;5.70;;;21.30;94.20;;;;;;5073973;28;20431;-67
2021/08/16 02:11:05;;;;;;;6.67;5.30;;;21.30;93.90;;;;;;5073973;28;20448;-67
2021/08/16 02:13:32;;;;;;;11.90;5.50;;;21.30;93.80;;;;;;5073831;28;20501;-68
2021/08/16 02:15:59;;;;;;;14.07;6.03;;;21.30;93.70;;;;;;5074132;28;20523;-67
2021/08/16 02:18:27;;;;;;;10.70;5.57;;;21.30;93.60;;;;;;5073888;28;20432;-68
2021/08/16 02:20:54;;;;;;;12.73;6.67;;;21.20;93.60;;;;;;5073557;28;20440;-67
2021/08/16 02:23:21;;;;;;;9.73;6.40;;;21.20;93.60;;;;;;5073627;28;20432;-67
2021/08/16 02:25:48;;;;;;;10.90;5.30;;;21.20;93.50;;;;;;5073330;28;20480;-68
2021/08/16 02:28:16;;;;;;;9.00;4.80;;;21.20;93.50;;;;;;5073893;28;20947;-67
2021/08/16 02:30:44;;;;;;;21.53;5.60;;;21.20;93.50;;;;;;5073784;28;20450;-67
2021/08/16 02:33:12;;;;;;;6.57;5.87;;;21.30;93.70;;;;;;5073725;28;20777;-67
2021/08/16 02:35:41;;;;;;;10.77;5.17;;;21.30;93.60;;;;;;5073293;28;20527;-68
2021/08/16 02:38:09;;;;;;;8.20;4.93;;;21.30;93.60;;;;;;5073213;28;20447;-68
2021/08/16 02:40:36;;;;;;;8.80;5.23;;;21.30;93.60;;;;;;5073456;28;20997;-67
2021/08/16 02:43:03;;;;;;;11.27;6.20;;;21.30;93.30;;;;;;5073401;28;20847;-67
2021/08/16 02:45:30;;;;;;;9.67;7.17;;;21.20;93.40;;;;;;5073605;28;20549;-68
2021/08/16 02:47:58;;;;;;;10.73;5.77;;;21.20;93.30;;;;;;5073401;28;20780;-68
2021/08/16 02:50:25;;;;;;;9.13;5.73;;;21.20;93.50;;;;;;5073321;28;20763;-68
2021/08/16 02:52:55;;;;;;;10.37;6.57;;;21.10;93.50;;;;;;5073364;28;20435;-67
2021/08/16 02:55:22;;;;;;;9.33;5.27;;;21.10;93.50;;;;;;5073087;28;20915;-67
2021/08/16 02:57:49;;;;;;;9.80;6.13;;;21.00;93.50;;;;;;5073565;28;20526;-68
2021/08/16 03:00:18;;;;;;;7.47;5.90;;;21.00;93.70;;;;;;5073358;28;20442;-67
2021/08/16 03:02:45;;;;;;;7.20;6.00;;;21.00;93.70;;;;;;5073336;28;20456;-67
2021/08/16 03:05:13;;;;;;;9.23;5.93;;;21.00;93.70;;;;;;5073233;28;20483;-68
2021/08/16 03:07:40;;;;;;;13.03;6.73;;;21.10;93.80;;;;;;5073119;28;20436;-67
2021/08/16 03:10:11;;;;;;;12.33;6.03;;;21.10;93.60;;;;;;5073159;28;20441;-67
2021/08/16 03:12:38;;;;;;;8.33;5.83;;;21.00;93.50;;;;;;5073203;28;20534;-67
2021/08/16 03:15:06;;;;;;;11.20;6.20;;;20.90;93.70;;;;;;5072951;28;20447;-67
2021/08/16 03:17:34;;;;;;;12.73;6.47;;;20.80;94.00;;;;;;5073279;28;20431;-67
2021/08/16 03:20:01;;;;;;;7.40;6.00;;;20.70;94.20;;;;;;5073255;28;20463;-67
2021/08/16 03:22:28;;;;;;;10.27;6.30;;;20.70;94.30;;;;;;5072912;28;20442;-68
2021/08/16 03:24:55;;;;;;;7.73;5.90;;;20.70;94.40;;;;;;5072889;28;20532;-67
2021/08/16 03:27:23;;;;;;;9.23;5.63;;;20.70;94.50;;;;;;5072931;28;20551;-68
2021/08/16 03:29:50;;;;;;;15.97;7.27;;;20.70;94.40;;;;;;5072905;28;20527;-68
2021/08/16 03:32:17;;;;;;;8.37;5.60;;;20.70;94.50;;;;;;5074133;28;20482;-68
2021/08/16 03:34:44;;;;;;;9.97;5.87;;;20.70;94.50;;;;;;5077216;28;20489;-67
2021/08/16 03:37:12;;;;;;;15.33;5.67;;;20.70;94.50;;;;;;5076938;28;20435;-68
2021/08/16 03:39:39;;;;;;;7.67;5.30;;;20.70;94.50;;;;;;5076940;28;20444;-68
2021/08/16 03:42:06;;;;;;;8.27;6.27;;;20.70;94.50;;;;;;5077051;28;20563;-67
2021/08/16 03:44:34;;;;;;;13.20;5.40;;;20.70;94.40;;;;;;5076971;28;20514;-67
2021/08/16 03:47:01;;;;;;;11.00;6.40;;;20.80;94.30;;;;;;5076476;28;20606;-67
2021/08/16 03:49:28;;;;;;;10.83;6.27;;;20.80;94.40;;;;;;5076680;28;20440;-68
2021/08/16 03:51:55;;;;;;;9.10;6.33;;;20.80;94.20;;;;;;5076549;28;20439;-67
2021/08/16 03:54:22;;;;;;;6.40;5.37;;;20.80;94.00;;;;;;5076651;28;20439;-66
2021/08/16 03:56:50;;;;;;;7.77;5.47;;;20.80;94.00;;;;;;5076752;28;20447;-68
2021/08/16 03:59:17;;;;;;;11.80;7.03;;;20.80;93.80;;;;;;5076796;28;20773;-68
2021/08/16 04:01:45;;;;;;;7.63;5.70;;;20.80;93.90;;;;;;5076710;28;20527;-67
2021/08/16 04:04:17;;;;;;;9.37;6.47;;;20.80;93.70;;;;;;5076424;28;20443;-67
2021/08/16 04:06:44;;;;;;;12.60;6.03;;;20.80;93.70;;;;;;5076471;28;20484;-67
2021/08/16 04:09:13;;;;;;;16.23;5.80;;;20.80;93.80;;;;;;5076532;28;20519;-68
2021/08/16 04:11:40;;;;;;;9.73;5.40;;;20.80;93.60;;;;;;5076309;28;20444;-67
2021/08/16 04:14:07;;;;;;;7.13;5.17;;;20.80;93.50;;;;;;5076223;28;20510;-67
2021/08/16 04:16:34;;;;;;;9.40;7.60;;;20.90;93.60;;;;;;5076264;28;20432;-67
2021/08/16 04:19:02;;;;;;;8.23;6.43;;;20.80;94.10;;;;;;5076274;28;20539;-67
2021/08/16 04:21:32;;;;;;;12.03;6.53;;;20.80;93.70;;;;;;5075950;28;20436;-67
2021/08/16 04:23:59;;;;;;;8.17;5.77;;;20.80;93.80;;;;;;5076105;28;20543;-67
2021/08/16 04:26:27;;;;;;;8.53;6.50;;;20.80;93.80;;;;;;5075404;28;20977;-67
2021/08/16 04:28:54;;;;;;;7.40;6.00;;;20.80;93.60;;;;;;5074777;28;20436;-67
2021/08/16 04:31:21;;;;;;;13.53;5.43;;;20.90;94.20;;;;;;5074998;28;20526;-67
2021/08/16 04:33:48;;;;;;;10.53;5.53;;;20.90;93.90;;;;;;5074682;28;20466;-67
2021/08/16 04:36:16;;;;;;;9.40;5.97;;;20.90;93.80;;;;;;5074754;28;20523;-68
2021/08/16 04:38:43;;;;;;;6.50;5.53;;;21.00;93.80;;;;;;5074652;28;20440;-67
2021/08/16 04:41:10;;;;;;;8.37;5.63;;;21.00;93.90;;;;;;5074511;28;20471;-68
2021/08/16 04:44:01;;;;;;;7.80;6.07;;;21.10;93.90;;;;;;5066965;28;20451;-68
2021/08/16 04:46:28;;;;;;;9.33;6.30;;;21.10;93.60;;;;;;5070642;28;20494;-67
2021/08/16 04:48:56;;;;;;;12.10;6.43;;;21.10;93.40;;;;;;5071841;28;20444;-67
2021/08/16 04:51:24;;;;;;;9.20;6.10;;;21.10;93.30;;;;;;5072037;28;20440;-68
2021/08/16 04:53:52;;;;;;;9.47;6.97;;;21.20;93.00;;;;;;5071591;28;20468;-67
2021/08/16 04:56:23;;;;;;;7.23;5.70;;;21.20;92.90;;;;;;5071720;28;20841;-67
2021/08/16 04:59:01;;;;;;;7.93;5.63;;;21.20;93.20;;;;;;5072101;28;21011;-67
2021/08/16 05:01:29;;;;;;;6.53;5.83;;;21.30;93.40;;;;;;5071807;28;20772;-75
2021/08/16 05:03:58;;;;;;;7.10;6.20;;;21.30;93.40;;;;;;5071832;28;20436;-67
2021/08/16 05:06:31;;;;;;;7.83;5.50;;;21.30;93.60;;;;;;5070462;28;20471;-74
2021/08/16 05:08:59;;;;;;;6.57;5.70;;;21.30;93.70;;;;;;5068204;28;20431;-67
2021/08/16 05:11:46;;;;;;;10.03;6.03;;;21.30;93.80;;;;;;5069883;28;20444;-67
2021/08/16 05:14:15;;;;;;;8.90;6.17;;;21.30;93.80;;;;;;5071473;28;20436;-68
2021/08/16 05:16:50;;;;;;;8.03;5.57;;;21.40;93.70;;;;;;5070744;28;20447;-67
2021/08/16 05:19:18;;;;;;;8.63;6.57;;;21.40;93.40;;;;;;5067646;28;20435;-67
2021/08/16 05:21:47;;;;;;;8.00;5.90;;;21.40;93.20;;;;;;5070720;28;20459;-67
2021/08/16 05:24:14;;;;;;;7.63;5.23;;;21.40;93.00;;;;;;5070297;28;20498;-67
2021/08/16 05:26:41;;;;;;;11.87;6.20;;;21.50;93.00;;;;;;5029180;28;1193947;-68
2021/08/16 05:29:08;;;;;;;8.57;5.30;;;21.50;92.90;;;;;;5071666;28;20440;-67
2021/08/16 05:31:36;;;;;;;7.90;5.23;;;21.50;92.80;;;;;;5072400;28;20448;-67
2021/08/16 05:34:03;;;;;;;10.67;5.03;;;21.50;92.70;;;;;;5072603;28;20941;-67
2021/08/16 05:36:31;;;;;;;7.80;5.10;;;21.50;92.40;;;;;;5072317;28;20460;-67
2021/08/16 05:38:59;;;;;;;9.77;4.80;;;21.60;92.20;;;;;;5072224;28;20436;-68
2021/08/16 05:41:26;;;;;;;7.70;4.70;;;21.60;92.10;;;;;;5072829;28;20440;-67
2021/08/16 05:43:53;;;;;;;6.57;5.23;;;21.60;92.20;;;;;;5072135;28;20437;-68
2021/08/16 05:46:21;;;;;;;10.07;5.97;;;21.70;92.30;;;;;;5067360;28;20989;-67
2021/08/16 05:48:51;;;;;;;6.90;5.20;;;21.70;92.20;;;;;;5072551;28;20445;-67
2021/08/16 05:51:18;;;;;;;8.30;5.20;;;21.70;92.30;;;;;;5072179;28;20803;-68
2021/08/16 05:53:48;;;;;;;6.90;5.40;;;21.70;92.50;;;;;;5069993;28;20448;-68
2021/08/16 05:56:17;;;;;;;10.97;5.47;;;21.70;92.70;;;;;;5071373;28;20515;-71
2021/08/16 05:58:44;;;;;;;8.93;7.20;;;21.70;92.80;;;;;;5071762;28;20454;-67
2021/08/16 06:01:13;;;;;;;8.20;5.90;;;21.70;92.90;;;;;;5073825;28;20440;-67
2021/08/16 06:03:40;;;;;;;11.43;5.77;;;21.70;93.10;;;;;;5073426;28;20844;-67
2021/08/16 06:06:08;;;;;;;6.63;4.60;;;21.70;93.30;;;;;;5070488;28;20989;-67
2021/08/16 06:08:35;;;;;;;9.30;5.30;;;21.70;93.30;;;;;;5071892;28;20498;-67
2021/08/16 06:11:03;;;;;;;10.70;5.53;;;21.70;93.40;;;;;;5067451;28;20428;-67
2021/08/16 06:13:32;;;;;;;12.43;6.03;;;21.60;92.90;;;;;;5071440;28;20444;-67
2021/08/16 06:15:59;;;;;;;10.83;5.23;;;21.50;93.70;;;;;;5071604;28;20953;-67
2021/08/16 06:18:27;;;;;;;11.37;5.67;;;21.50;94.50;;;;;;5071418;28;20436;-67
2021/08/16 06:20:55;;;;;;;8.20;5.60;;;21.60;94.70;;;;;;5068614;28;20463;-69
2021/08/16 06:23:22;;;;;;;9.40;6.73;;;21.60;94.70;;;;;;5070751;28;20445;-67
2021/08/16 06:25:50;;;;;;;7.87;5.63;;;21.70;94.70;;;;;;5070367;28;20435;-67
2021/08/16 06:28:17;;;;;;;9.40;5.80;;;21.70;94.70;;;;;;5071236;28;20459;-67
2021/08/16 06:30:46;;;;;;;7.70;5.97;;;21.70;94.80;;;;;;5071417;28;20493;-67
2021/08/16 06:33:13;;;;;;;8.40;5.90;;;21.70;95.20;;;;;;5071581;28;20440;-72
2021/08/16 06:35:40;;;;;;;5.60;5.00;;;21.80;94.50;;;;;;5069988;28;20796;-68
2021/08/16 06:38:12;;;;;;;7.70;5.50;;;21.80;94.70;;;;;;5070960;28;20438;-68
2021/08/16 06:40:41;;;;;;;9.07;6.30;;;21.90;94.60;;;;;;5070803;28;20929;-67
2021/08/16 06:43:08;;;;;;;9.13;5.73;;;21.80;94.20;;;;;;5071089;28;20432;-68
2021/08/16 06:45:37;;;;;;;6.77;5.30;;;21.80;94.10;;;;;;5071244;28;20439;-67
2021/08/16 06:48:06;;;;;;;6.80;4.57;;;21.80;94.20;;;;;;5071290;28;20455;-67
2021/08/16 06:50:33;;;;;;;11.40;4.90;;;21.80;93.90;;;;;;5070408;28;20789;-67
2021/08/16 06:53:00;;;;;;;5.50;4.73;;;21.80;93.60;;;;;;5070057;28;20523;-68
2021/08/16 06:55:27;;;;;;;8.13;5.87;;;21.80;93.80;;;;;;5071037;28;20440;-67
2021/08/16 06:57:55;;;;;;;7.20;5.77;;;21.90;93.80;;;;;;5071144;28;20470;-67
2021/08/16 07:00:22;;;;;;;7.50;5.70;;;21.90;93.90;;;;;;5071521;28;20446;-67
2021/08/16 07:02:49;;;;;;;7.37;5.43;;;22.00;93.90;;;;;;5070279;28;20432;-67
2021/08/16 07:05:18;;;;;;;8.10;5.23;;;22.10;93.90;;;;;;5071294;28;20772;-67
2021/08/16 07:07:47;;;;;;;11.40;5.07;;;22.10;93.60;;;;;;5070776;28;20486;-67
2021/08/16 07:10:16;;;;;;;10.43;6.00;;;22.10;93.80;;;;;;5070652;28;20452;-69
2021/08/16 07:12:43;;;;;;;6.50;4.70;;;22.10;93.10;;;;;;5067167;28;20440;-67
2021/08/16 07:15:11;;;;;;;9.50;6.40;;;22.20;93.50;;;;;;5071072;28;20962;-67
2021/08/16 07:17:38;;;;;;;9.40;6.53;;;22.30;93.60;;;;;;5070573;28;20444;-67
2021/08/16 07:20:09;;;;;;;7.37;5.47;;;22.50;93.60;;;;;;5070326;28;20440;-68
2021/08/16 07:22:37;;;;;;;9.27;5.60;;;22.70;93.10;;;;;;5069850;28;20443;-67
2021/08/16 07:25:05;;;;;;;6.43;5.33;;;23.00;92.30;;;;;;5069825;28;20513;-67
2021/08/16 07:27:32;;;;;;;7.17;5.40;;;23.00;92.20;;;;;;5070546;28;20902;-72
2021/08/16 07:29:59;;;;;;;8.47;5.70;;;23.00;92.10;;;;;;5070143;28;20503;-67
2021/08/16 07:32:26;;;;;;;9.57;6.17;;;23.00;92.00;;;;;;5070585;28;20440;-67
2021/08/16 07:34:54;;;;;;;7.50;5.07;;;23.00;91.60;;;;;;5070443;28;20432;-67
2021/08/16 07:37:21;;;;;;;8.70;5.97;;;23.00;91.90;;;;;;5070439;28;20439;-68
2021/08/16 07:39:50;;;;;;;9.77;5.33;;;23.10;92.20;;;;;;5070402;28;20439;-67
2021/08/16 07:42:20;;;;;;;6.40;4.80;;;23.20;92.00;;;;;;5070043;28;20433;-67
2021/08/16 07:44:47;;;;;;;7.27;5.67;;;23.20;91.20;;;;;;5070518;28;20428;-70
2021/08/16 07:47:14;;;;;;;9.10;5.27;;;23.00;91.40;;;;;;5070138;28;20507;-68
2021/08/16 07:49:41;;;;;;;6.57;5.10;;;23.00;91.40;;;;;;5070643;28;20446;-68
2021/08/16 07:52:08;;;;;;;8.40;5.40;;;22.80;91.00;;;;;;5069924;28;20443;-67
2021/08/16 07:54:35;;;;;;;8.43;5.33;;;22.80;91.40;;;;;;5071389;28;20869;-67
2021/08/16 07:57:04;;;;;;;7.13;5.03;;;22.70;91.60;;;;;;5071950;28;20444;-68
2021/08/16 07:59:32;;;;;;;6.80;5.27;;;22.70;91.90;;;;;;5071437;28;20432;-67
2021/08/16 08:02:01;;;;;;;8.93;5.50;;;22.70;91.60;;;;;;5071476;28;20523;-67
2021/08/16 08:04:29;;;;;;;7.77;6.00;;;22.70;92.00;;;;;;5065686;28;20440;-67
2021/08/16 08:06:56;;;;;;;8.30;5.10;;;22.80;92.00;;;;;;5072652;28;20574;-68
2021/08/16 08:09:23;;;;;;;7.30;4.90;;;22.70;91.50;;;;;;5072698;28;20527;-68
2021/08/16 08:11:50;;;;;;;6.23;4.70;;;22.60;92.00;;;;;;5072485;28;20519;-67
2021/08/16 08:14:19;;;;;;;8.13;5.60;;;22.60;92.00;;;;;;5072557;28;20443;-68
2021/08/16 08:16:46;;;;;;;8.00;5.47;;;22.70;92.30;;;;;;5072772;28;20501;-67
2021/08/16 08:19:13;;;;;;;7.03;5.00;;;22.70;92.30;;;;;;5074959;28;20471;-67
2021/08/16 08:21:40;;;;;;;5.57;3.67;;;22.70;91.90;;;;;;5076204;28;20523;-67
2021/08/16 08:24:07;;;;;;;7.30;4.57;;;22.70;92.00;;;;;;5075786;28;20519;-67
2021/08/16 08:26:34;;;;;;;6.33;4.83;;;22.80;92.00;;;;;;5075753;28;20566;-68
2021/08/16 08:29:01;;;;;;;8.20;3.73;;;22.90;91.80;;;;;;5075949;28;20450;-67
2021/08/16 08:31:29;;;;;;;7.73;4.27;;;22.90;91.70;;;;;;5076064;28;20522;-67
2021/08/16 08:33:56;;;;;;;6.17;3.83;;;22.90;91.50;;;;;;5075998;28;20467;-67
2021/08/16 08:36:23;;;;;;;6.93;3.80;;;23.00;91.50;;;;;;5075794;28;21013;-68
2021/08/16 08:38:50;;;;;;;6.90;3.90;;;23.00;91.50;;;;;;5075642;28;20513;-68
2021/08/16 08:41:18;;;;;;;5.70;3.53;;;23.10;91.50;;;;;;5075606;28;20436;-68
2021/08/16 08:43:46;;;;;;;6.47;4.43;;;23.10;91.30;;;;;;5075662;28;20949;-67
2021/08/16 08:46:14;;;;;;;7.60;3.73;;;23.20;90.90;;;;;;5075752;28;20882;-68
2021/08/16 08:48:43;;;;;;;6.33;4.60;;;23.20;91.00;;;;;;5075445;28;20501;-67
2021/08/16 08:51:10;;;;;;;8.63;4.83;;;23.20;90.90;;;;;;5075698;28;20519;-67
2021/08/16 08:53:37;;;;;;;8.00;5.23;;;23.20;90.80;;;;;;5075535;28;20523;-67
2021/08/16 08:56:05;;;;;;;8.03;4.67;;;23.10;90.90;;;;;;5075610;28;20523;-67
2021/08/16 08:58:32;;;;;;;6.37;4.20;;;23.00;90.70;;;;;;5075577;28;20863;-67
2021/08/16 09:00:59;;;;;;;6.60;4.20;;;23.00;91.10;;;;;;5075481;28;20432;-67
2021/08/16 09:03:31;;;;;;;5.13;3.60;;;23.10;91.50;;;;;;5075067;28;20471;-67
2021/08/16 09:06:02;;;;;;;6.47;4.00;;;23.20;91.70;;;;;;5075456;28;20436;-67
2021/08/16 09:08:31;;;;;;;6.70;4.73;;;23.30;92.10;;;;;;5075150;28;20487;-67
2021/08/16 09:11:12;;;;;;;8.57;4.33;;;23.40;92.00;;;;;;5075142;28;20522;-68
2021/08/16 09:13:54;;;;;;;5.30;3.80;;;23.40;92.00;;;;;;5075506;28;20514;-67
2021/08/16 09:16:21;;;;;;;5.57;4.17;;;23.60;92.00;;;;;;5075254;28;20763;-67
2021/08/16 09:18:48;;;;;;;7.30;4.00;;;23.70;91.60;;;;;;5074831;28;20482;-68
2021/08/16 09:21:25;;;;;;;7.03;5.77;;;23.80;91.20;;;;;;5075171;28;20436;-67
2021/08/16 09:23:55;;;;;;;5.37;3.63;;;24.00;90.90;;;;;;5075154;28;20836;-67
2021/08/16 09:26:25;;;;;;;7.13;3.90;;;24.10;90.60;;;;;;5074871;28;20499;-68
2021/08/16 09:29:12;;;;;;;5.53;3.73;;;24.20;90.60;;;;;;5074822;28;20574;-67
2021/08/16 09:31:49;;;;;;;6.80;3.53;;;24.40;90.40;;;;;;5074540;28;20468;-67
2021/08/16 09:34:34;;;;;;;5.73;3.70;;;24.60;90.20;;;;;;5075087;28;20440;-67
2021/08/16 09:37:14;;;;;;;10.70;3.83;;;24.80;89.40;;;;;;5074905;28;20873;-68
2021/08/16 09:39:43;;;;;;;4.43;4.00;;;24.90;88.70;;;;;;5074522;28;20478;-67
2021/08/16 09:42:10;;;;;;;5.70;3.27;;;24.90;86.80;;;;;;5074611;28;20473;-67
2021/08/16 09:44:47;;;;;;;4.70;3.27;;;24.90;85.00;;;;;;5074595;28;20525;-67
2021/08/16 09:47:15;;;;;;;7.67;4.03;;;24.90;84.80;;;;;;5074505;28;20492;-68
2021/08/16 09:49:42;;;;;;;5.20;2.90;;;25.00;84.90;;;;;;5074424;28;20489;-67
2021/08/16 09:52:12;;;;;;;4.40;2.63;;;25.10;83.30;;;;;;5074172;28;20446;-67
2021/08/16 09:54:40;;;;;;;6.30;3.60;;;25.10;82.00;;;;;;5074385;28;20524;-68
2021/08/16 09:57:08;;;;;;;5.20;3.47;;;25.10;82.10;;;;;;5074092;28;20951;-68
2021/08/16 09:59:36;;;;;;;4.20;3.63;;;25.20;82.60;;;;;;5074158;28;20529;-67
2021/08/16 10:02:03;;;;;;;6.20;3.77;;;25.10;81.90;;;;;;5073954;28;20440;-67
2021/08/16 10:04:31;;;;;;;3.27;2.60;;;25.00;83.00;;;;;;5073971;28;20436;-68
2021/08/16 10:07:26;;;;;;;4.73;2.90;;;24.90;81.60;;;;;;5074349;28;20494;-68
2021/08/16 10:10:00;;;;;;;5.17;3.83;;;24.90;83.40;;;;;;5074547;28;20458;-71
2021/08/16 10:12:34;;;;;;;6.30;3.33;;;25.00;85.70;;;;;;5074518;28;20442;-67
2021/08/16 10:15:03;;;;;;;6.60;4.07;;;25.10;85.60;;;;;;5074039;28;20438;-68
2021/08/16 10:17:38;;;;;;;8.27;3.57;;;25.10;83.50;;;;;;5073461;28;20530;-67
2021/08/16 10:20:07;;;;;;;5.83;3.63;;;25.10;83.70;;;;;;5073895;28;20520;-67
2021/08/16 10:22:40;;;;;;;4.37;3.17;;;25.10;82.80;;;;;;5073237;28;20500;-67
2021/08/16 10:25:15;;;;;;;6.53;2.97;;;25.10;81.20;;;;;;5073670;28;20549;-67
2021/08/16 10:27:47;;;;;;;6.27;3.77;;;25.20;82.70;;;;;;5073332;28;20584;-67
2021/08/16 10:30:15;;;;;;;4.73;3.07;;;25.30;82.60;;;;;;5073831;28;20442;-68
2021/08/16 10:32:47;;;;;;;3.63;3.00;;;25.30;82.50;;;;;;5073579;28;20517;-68
2021/08/16 10:35:17;;;;;;;4.10;2.93;;;25.20;80.30;;;;;;5073553;28;20483;-68
2021/08/16 10:37:46;;;;;;;4.50;3.20;;;25.10;81.20;;;;;;5073471;28;20474;-67
2021/08/16 10:40:24;;;;;;;5.50;2.93;;;25.10;82.30;;;;;;5073554;28;20446;-67
2021/08/16 10:42:53;;;;;;;6.00;3.10;;;25.10;84.20;;;;;;5073269;28;20484;-68
2021/08/16 10:45:28;;;;;;;4.43;3.00;;;25.20;85.30;;;;;;5073245;28;20912;-68
2021/08/16 10:48:05;;;;;;;4.80;3.17;;;25.30;85.30;;;;;;5073168;28;20491;-67
2021/08/16 10:50:33;;;;;;;4.67;3.23;;;25.30;84.90;;;;;;5073120;28;20845;-67
2021/08/16 10:53:05;;;;;;;4.50;3.03;;;25.30;84.70;;;;;;5072896;28;20449;-68
2021/08/16 10:55:34;;;;;;;4.60;3.00;;;25.30;84.30;;;;;;5073131;28;20459;-68
2021/08/16 10:58:01;;;;;;;6.30;2.90;;;25.30;84.90;;;;;;5072882;28;20514;-67
2021/08/16 11:00:28;;;;;;;5.10;3.50;;;25.30;84.20;;;;;;5072811;28;20458;-68
2021/08/16 11:02:56;;;;;;;5.77;3.17;;;25.30;83.00;;;;;;5072886;28;20470;-68
2021/08/16 11:05:31;;;;;;;5.53;3.10;;;25.30;82.80;;;;;;5072953;28;20454;-68
2021/08/16 11:08:05;;;;;;;5.30;3.80;;;25.30;82.60;;;;;;5072969;28;20592;-67
2021/08/16 11:10:40;;;;;;;3.80;3.33;;;25.30;82.20;;;;;;5073192;28;20485;-68
2021/08/16 11:13:16;;;;;;;5.40;3.67;;;25.20;83.00;;;;;;5073045;28;20449;-67
2021/08/16 11:15:44;;;;;;;7.23;4.77;;;25.20;82.80;;;;;;5073129;28;20441;-67
2021/08/16 11:18:16;;;;;;;5.73;5.03;;;25.10;83.50;;;;;;5072710;28;20528;-67
2021/08/16 11:20:44;;;;;;;8.53;4.90;;;25.00;83.10;;;;;;5073081;28;21558;-67
2021/08/16 11:23:13;;;;;;;7.50;4.60;;;24.80;83.50;;;;;;5072771;28;20531;-67
2021/08/16 11:25:50;;;;;;;8.10;4.97;;;24.70;83.70;;;;;;5072634;28;20440;-68
2021/08/16 11:28:21;;;;;;;6.83;5.33;;;24.60;84.10;;;;;;5072821;28;20484;-68
2021/08/16 11:30:49;;;;;;;7.27;5.27;;;24.50;84.20;;;;;;5072653;28;20482;-68
2021/08/16 11:33:25;;;;;;;7.40;6.30;;;24.50;84.60;;;;;;5072886;28;20436;-67
2021/08/16 11:36:03;;;;;;;9.83;6.40;;;24.40;85.30;;;;;;5072921;28;20467;-66
2021/08/16 11:38:31;;;;;;;8.17;5.97;;;24.30;85.40;;;;;;5072427;28;20470;-67
2021/08/16 11:41:06;;;;;;;8.10;6.23;;;24.30;86.20;;;;;;5072761;28;20466;-67
2021/08/16 11:43:33;;;;;;;7.60;6.60;;;24.20;86.10;;;;;;5072339;28;20473;-67
2021/08/16 11:46:12;;;;;;;7.70;6.30;;;24.20;86.40;;;;;;5072738;28;20444;-67
2021/08/16 11:48:42;;;;;;;6.50;5.73;;;24.20;85.80;;;;;;5072738;28;20935;-67
2021/08/16 11:51:09;;;;;;;9.07;6.77;;;24.10;86.50;;;;;;5072419;28;20526;-67
2021/08/16 11:53:43;;;;;;;8.63;6.60;;;23.90;87.10;;;;;;5073866;28;20528;-67
2021/08/16 11:56:10;;;;;;;7.37;6.50;;;23.80;87.70;;;;;;5076612;28;20510;-67
2021/08/16 11:58:38;;;;;;;8.17;6.90;;;23.60;87.10;;;;;;5076159;28;20841;-67
2021/08/16 12:01:06;;;;;;;11.00;7.77;;;23.40;87.50;;;;;;5076591;28;20435;-67
2021/08/16 12:03:35;;;;;;;10.00;7.20;;;23.20;87.70;;;;;;5076542;28;20482;-67
2021/08/16 12:06:03;;;;;;;11.17;7.70;;;23.10;88.50;;;;;;5076202;28;20452;-67
2021/08/16 12:08:30;;;;;;;10.23;7.30;;;22.90;89.60;;;;;;5076248;28;20519;-67
2021/08/16 12:11:01;;;;;;;10.10;7.90;;;22.90;90.30;;;;;;5076343;28;20436;-67
2021/08/16 12:13:28;;;;;;;21.50;7.90;;;22.80;90.70;;;;;;5076454;28;20549;-67
2021/08/16 12:15:55;;;;;;;8.43;7.53;;;22.70;91.00;;;;;;5076534;28;20436;-68
2021/08/16 12:18:29;;;;;;;10.97;8.53;;;22.60;91.20;;;;;;5076132;28;20515;-68
2021/08/16 12:20:57;;;;;;;10.67;8.50;;;22.50;91.30;;;;;;5075941;28;20481;-68
2021/08/16 12:23:27;;;;;;;10.60;9.50;;;22.40;91.50;;;;;;5076158;28;20444;-67
2021/08/16 12:25:54;;;;;;;12.80;9.40;;;22.40;92.00;;;;;;5075969;28;20448;-67
2021/08/16 12:28:39;;;;;;;12.57;7.50;;;22.30;92.30;;;;;;5075877;28;20483;-67
2021/08/16 12:31:14;;;;;;;8.47;7.20;;;22.40;92.70;;;;;;5076282;28;20526;-67
2021/08/16 12:34:01;;;;;;;8.57;7.10;;;22.40;93.00;;;;;;5075969;28;20431;-67
2021/08/16 12:36:30;;;;;;;8.10;7.30;;;22.30;92.80;;;;;;5075846;28;20993;-67
2021/08/16 12:38:59;;;;;;;10.90;7.60;;;22.40;92.80;;;;;;5075867;28;20460;-67
2021/08/16 12:41:28;;;;;;;10.90;7.30;;;22.40;92.90;;;;;;5075952;28;20859;-68
2021/08/16 12:43:57;;;;;;;10.70;8.07;;;22.40;93.00;;;;;;5075558;28;20514;-67
2021/08/16 12:46:29;;;;;;;10.07;7.63;;;22.40;93.20;;;;;;5075471;28;20527;-68
2021/08/16 12:49:02;;;;;;;8.97;7.10;;;22.30;93.50;;;;;;5075428;28;21000;-68
2021/08/16 12:51:30;;;;;;;9.43;8.53;;;22.20;93.70;;;;;;5075747;28;20430;-67